Terminal Aerodrome Forecast
Issued by NWS

Home | Current Version | Previous Version | Text Only | Print | Product List | Glossary On
Versions: 1 2 3 4 5 6 7 8 9 10 11 12 13 14
734
FTUS44 KCRP 240524
TAFALI
TAF
KALI 240524Z 2406/2506 15006KT P6SM SKC
     FM240800 15004KT P6SM FEW015
      TEMPO 2409/2413 5SM BR SCT015
     FM241400 17014G21KT P6SM FEW018 SCT035
     FM242000 14014G21KT P6SM FEW050
     FM250100 14011KT P6SM SKC=

USA.gov is the U.S. government's official web portal to all federal, state and local government web resources and services.